Wetterdaten: Woche 05.06.17 - 11.06.17 (KW23)
Datum Zeit Temp. A. Feuchte A. Luftdruck Regen Wind Richtung Taupunkt Windchill Windben
05.06.2017 00:00 16,8 C 79 % 1014,8 hPa 0,0 l/m 3,2 km/h N 13,0 C 16,8 C 11,7 km/h
05.06.2017 01:00 15,8 C 81 % 1015,3 hPa 0,0 l/m 0,1 km/h N 12,4 C 15,8 C 2,4 km/h
05.06.2017 02:00 14,6 C 81 % 1015,3 hPa 0,0 l/m 0,0 km/h N 11,4 C 14,6 C 0,4 km/h
05.06.2017 03:00 13,6 C 82 % 1015,4 hPa 0,0 l/m 0,0 km/h N 10,5 C 13,6 C 0,0 km/h
05.06.2017 04:00 13,0 C 82 % 1015,7 hPa 0,0 l/m 0,0 km/h N 10,0 C 13,0 C 0,8 km/h
05.06.2017 05:00 13,3 C 82 % 1015,8 hPa 0,0 l/m 0,1 km/h N 10,3 C 13,3 C 4,0 km/h
05.06.2017 06:00 14,1 C 81 % 1016,0 hPa 0,0 l/m 1,9 km/h N 10,9 C 14,1 C 12,1 km/h
05.06.2017 07:00 15,8 C 75 % 1015,8 hPa 0,0 l/m 2,0 km/h N 11,2 C 15,8 C 10,4 km/h
05.06.2017 08:00 17,7 C 66 % 1015,9 hPa 0,0 l/m 0,5 km/h N 11,3 C 17,7 C 5,6 km/h
05.06.2017 09:00 19,8 C 59 % 1015,9 hPa 0,0 l/m 0,3 km/h N 11,5 C 19,8 C 4,4 km/h
05.06.2017 10:00 21,1 C 56 % 1015,5 hPa 0,0 l/m 0,7 km/h N 11,9 C 21,1 C 6,8 km/h
05.06.2017 11:00 21,4 C 54 % 1015,0 hPa 0,0 l/m 0,9 km/h N 11,8 C 21,4 C 8,4 km/h
05.06.2017 12:00 22,5 C 57 % 1014,3 hPa 0,0 l/m 1,7 km/h N 13,4 C 22,5 C 11,3 km/h
05.06.2017 13:00 23,8 C 55 % 1013,6 hPa 0,0 l/m 0,9 km/h N 14,2 C 23,8 C 8,0 km/h
05.06.2017 14:00 24,5 C 54 % 1013,1 hPa 0,0 l/m 1,3 km/h N 14,6 C 24,5 C 8,9 km/h
05.06.2017 15:00 24,3 C 52 % 1012,5 hPa 0,0 l/m 0,7 km/h N 13,9 C 24,3 C 6,0 km/h
05.06.2017 16:00 23,8 C 56 % 1011,7 hPa 0,0 l/m 0,5 km/h N 14,4 C 23,8 C 6,0 km/h
05.06.2017 17:00 23,7 C 57 % 1010,9 hPa 0,0 l/m 0,7 km/h N 14,7 C 23,7 C 6,4 km/h
05.06.2017 18:00 24,7 C 56 % 1010,1 hPa 0,0 l/m 1,1 km/h N 15,3 C 24,7 C 6,4 km/h
05.06.2017 19:00 24,1 C 57 % 1009,6 hPa 0,0 l/m 1,2 km/h N 15,1 C 24,1 C 7,6 km/h
05.06.2017 20:00 23,2 C 61 % 1009,5 hPa 0,0 l/m 0,2 km/h N 15,2 C 23,2 C 2,8 km/h
05.06.2017 21:00 21,1 C 67 % 1009,8 hPa 0,0 l/m 0,0 km/h N 14,6 C 21,1 C 1,2 km/h
05.06.2017 22:00 19,1 C 73 % 1009,8 hPa 0,0 l/m 0,0 km/h N 14,1 C 19,1 C 0,0 km/h
05.06.2017 23:00 17,7 C 78 % 1009,4 hPa 0,0 l/m 0,1 km/h N 13,7 C 17,7 C 1,6 km/h
06.06.2017 00:00 17,9 C 78 % 1009,0 hPa 0,0 l/m 0,1 km/h N 13,9 C 17,9 C 2,0 km/h
06.06.2017 01:00 17,1 C 79 % 1008,7 hPa 0,0 l/m 0,0 km/h N 13,4 C 17,1 C 0,0 km/h
06.06.2017 02:00 16,3 C 81 % 1008,2 hPa 0,0 l/m 0,0 km/h N 12,9 C 16,3 C 0,8 km/h
06.06.2017 03:00 16,6 C 81 % 1007,7 hPa 0,0 l/m 0,0 km/h N 13,2 C 16,6 C 0,4 km/h
06.06.2017 04:00 15,7 C 81 % 1007,4 hPa 0,0 l/m 0,0 km/h N 12,4 C 15,7 C 0,8 km/h
06.06.2017 05:00 14,8 C 81 % 1007,1 hPa 0,0 l/m 0,0 km/h N 11,6 C 14,8 C 0,0 km/h
06.06.2017 06:00 15,0 C 82 % 1006,7 hPa 0,0 l/m 0,0 km/h N 11,8 C 15,0 C 1,2 km/h
06.06.2017 07:00 16,6 C 82 % 1006,3 hPa 0,0 l/m 0,1 km/h N 13,5 C 16,6 C 2,0 km/h
06.06.2017 08:00 19,8 C 78 % 1006,0 hPa 0,0 l/m 0,4 km/h N 15,8 C 19,8 C 3,6 km/h
06.06.2017 09:00 23,3 C 70 % 1005,3 hPa 0,0 l/m 0,7 km/h N 17,3 C 23,3 C 6,8 km/h
06.06.2017 10:00 25,6 C 63 % 1004,7 hPa 0,0 l/m 1,4 km/h N 17,8 C 25,6 C 6,4 km/h
06.06.2017 11:00 28,1 C 52 % 1004,2 hPa 0,0 l/m 3,5 km/h N 17,3 C 28,1 C 15,3 km/h
06.06.2017 12:00 28,1 C 51 % 1003,8 hPa 0,0 l/m 3,6 km/h N 17,1 C 28,1 C 13,7 km/h
06.06.2017 13:00 27,4 C 50 % 1003,3 hPa 0,0 l/m 5,5 km/h N 16,0 C 27,4 C 20,5 km/h
06.06.2017 14:00 27,2 C 52 % 1003,0 hPa 0,0 l/m 6,3 km/h N 16,3 C 27,1 C 21,3 km/h
06.06.2017 15:00 27,3 C 53 % 1002,9 hPa 0,0 l/m 4,9 km/h N 16,8 C 27,3 C 19,3 km/h
06.06.2017 16:00 26,6 C 56 % 1002,1 hPa 0,0 l/m 3,1 km/h N 16,9 C 26,6 C 13,3 km/h
06.06.2017 17:00 26,1 C 57 % 1001,7 hPa 0,0 l/m 3,6 km/h N 17,0 C 26,1 C 12,9 km/h
06.06.2017 18:00 25,0 C 54 % 1002,4 hPa 0,0 l/m 4,3 km/h N 14,9 C 25,0 C 17,3 km/h
06.06.2017 19:00 23,8 C 58 % 1003,4 hPa 0,0 l/m 3,9 km/h N 15,0 C 23,8 C 14,9 km/h
06.06.2017 20:00 18,8 C 71 % 1005,5 hPa 0,3 l/m 8,5 km/h N 13,3 C 17,9 C 31,4 km/h
06.06.2017 21:00 16,3 C 77 % 1007,0 hPa 0,0 l/m 8,8 km/h N 12,1 C 15,2 C 32,6 km/h
06.06.2017 22:00 15,9 C 73 % 1008,1 hPa 0,0 l/m 9,3 km/h N 11,1 C 14,5 C 34,2 km/h
06.06.2017 23:00 15,3 C 65 % 1009,1 hPa 0,0 l/m 15,5 km/h N 8,7 C 11,4 C 39,0 km/h
07.06.2017 00:00 15,3 C 62 % 1009,5 hPa 0,0 l/m 15,1 km/h N 7,9 C 11,5 C 41,4 km/h
07.06.2017 01:00 15,4 C 61 % 1010,0 hPa 0,0 l/m 16,0 km/h N 7,9 C 11,3 C 43,4 km/h
07.06.2017 02:00 15,4 C 62 % 1010,6 hPa 0,0 l/m 10,2 km/h N 8,0 C 13,6 C 30,6 km/h
07.06.2017 03:00 15,4 C 60 % 1011,3 hPa 0,0 l/m 9,5 km/h N 7,7 C 13,8 C 29,0 km/h
07.06.2017 04:00 15,8 C 58 % 1011,7 hPa 0,0 l/m 10,4 km/h N 7,6 C 13,9 C 26,9 km/h
07.06.2017 05:00 15,3 C 61 % 1012,3 hPa 0,0 l/m 11,1 km/h N 7,9 C 13,0 C 29,8 km/h
07.06.2017 06:00 15,1 C 59 % 1013,1 hPa 0,0 l/m 12,1 km/h N 7,2 C 12,3 C 31,4 km/h
07.06.2017 07:00 15,1 C 59 % 1014,1 hPa 0,0 l/m 13,0 km/h N 7,2 C 12,0 C 33,0 km/h
07.06.2017 08:00 15,0 C 59 % 1015,0 hPa 0,0 l/m 12,8 km/h N 7,0 C 12,0 C 32,2 km/h
07.06.2017 09:00 15,1 C 60 % 1016,3 hPa 0,0 l/m 5,8 km/h N 7,4 C 14,6 C 21,3 km/h
07.06.2017 10:00 16,5 C 60 % 1016,4 hPa 0,0 l/m 7,9 km/h N 8,7 C 15,7 C 24,5 km/h
07.06.2017 11:00 17,0 C 56 % 1017,0 hPa 0,0 l/m 6,2 km/h N 8,1 C 16,6 C 23,8 km/h
07.06.2017 12:00 16,8 C 56 % 1016,9 hPa 0,0 l/m 5,4 km/h N 7,8 C 16,7 C 19,3 km/h
07.06.2017 13:00 17,7 C 53 % 1016,7 hPa 0,0 l/m 2,7 km/h N 7,8 C 17,7 C 16,1 km/h
07.06.2017 14:00 18,1 C 51 % 1016,6 hPa 0,0 l/m 2,5 km/h N 7,7 C 18,1 C 11,7 km/h
07.06.2017 15:00 18,3 C 53 % 1016,8 hPa 0,0 l/m 1,4 km/h N 8,5 C 18,3 C 10,9 km/h
07.06.2017 16:00 17,9 C 54 % 1016,8 hPa 0,0 l/m 0,9 km/h N 8,5 C 17,9 C 7,6 km/h
07.06.2017 17:00 17,5 C 54 % 1017,2 hPa 0,0 l/m 3,8 km/h N 8,2 C 17,5 C 13,7 km/h
07.06.2017 18:00 16,8 C 57 % 1017,7 hPa 0,0 l/m 8,5 km/h N 8,3 C 15,7 C 21,7 km/h
07.06.2017 19:00 16,5 C 57 % 1018,1 hPa 0,0 l/m 3,7 km/h N 8,0 C 16,4 C 15,3 km/h
07.06.2017 20:00 16,1 C 56 % 1018,4 hPa 0,0 l/m 3,5 km/h N 7,3 C 16,1 C 16,5 km/h
07.06.2017 21:00 15,5 C 57 % 1019,3 hPa 0,0 l/m 2,7 km/h N 7,1 C 15,5 C 14,9 km/h
07.06.2017 22:00 15,1 C 60 % 1019,9 hPa 0,0 l/m 6,0 km/h N 7,3 C 14,7 C 21,3 km/h
07.06.2017 23:00 15,1 C 59 % 1020,2 hPa 0,0 l/m 8,1 km/h N 7,3 C 14,2 C 24,9 km/h
08.06.2017 00:00 14,9 C 58 % 1020,6 hPa 0,0 l/m 5,1 km/h N 6,8 C 14,9 C 18,5 km/h
08.06.2017 01:00 14,4 C 61 % 1020,7 hPa 0,0 l/m 4,9 km/h N 6,9 C 14,4 C 18,1 km/h
08.06.2017 02:00 13,8 C 62 % 1020,8 hPa 0,0 l/m 6,6 km/h N 6,7 C 13,4 C 19,3 km/h
08.06.2017 03:00 13,4 C 63 % 1021,0 hPa 0,0 l/m 5,7 km/h N 6,4 C 13,3 C 18,1 km/h
08.06.2017 04:00 13,2 C 63 % 1021,1 hPa 0,0 l/m 6,5 km/h N 6,2 C 13,0 C 18,5 km/h
08.06.2017 05:00 13,1 C 63 % 1021,5 hPa 0,0 l/m 6,8 km/h N 6,2 C 12,6 C 18,1 km/h
08.06.2017 06:00 13,9 C 61 % 1021,6 hPa 0,0 l/m 7,7 km/h N 6,5 C 12,9 C 21,7 km/h
08.06.2017 07:00 14,8 C 60 % 1021,7 hPa 0,0 l/m 9,3 km/h N 7,2 C 13,3 C 22,5 km/h
08.06.2017 08:00 16,2 C 58 % 1021,6 hPa 0,0 l/m 7,0 km/h N 7,9 C 15,8 C 20,1 km/h
08.06.2017 09:00 17,5 C 56 % 1021,6 hPa 0,0 l/m 7,3 km/h N 8,6 C 17,0 C 21,7 km/h
08.06.2017 10:00 18,5 C 53 % 1021,5 hPa 0,0 l/m 5,2 km/h N 8,7 C 18,5 C 20,5 km/h
08.06.2017 11:00 19,3 C 51 % 1021,1 hPa 0,0 l/m 6,5 km/h N 8,8 C 19,0 C 20,1 km/h
08.06.2017 12:00 20,4 C 49 % 1020,6 hPa 0,0 l/m 3,1 km/h N 9,4 C 20,4 C 13,7 km/h
08.06.2017 13:00 21,5 C 46 % 1020,0 hPa 0,0 l/m 3,1 km/h N 9,2 C 21,5 C 14,9 km/h
08.06.2017 14:00 22,0 C 44 % 1019,6 hPa 0,0 l/m 2,8 km/h N 9,1 C 22,0 C 15,3 km/h
08.06.2017 15:00 22,3 C 40 % 1019,0 hPa 0,0 l/m 2,4 km/h N 8,1 C 22,3 C 14,1 km/h
08.06.2017 16:00 22,2 C 36 % 1018,6 hPa 0,0 l/m 1,9 km/h N 6,5 C 22,2 C 10,9 km/h
08.06.2017 17:00 22,9 C 37 % 1018,0 hPa 0,0 l/m 1,1 km/h N 7,5 C 22,9 C 8,9 km/h
08.06.2017 18:00 24,3 C 36 % 1017,6 hPa 0,0 l/m 0,9 km/h N 8,1 C 24,3 C 7,2 km/h
08.06.2017 19:00 24,3 C 36 % 1017,6 hPa 0,0 l/m 0,5 km/h N 8,1 C 24,3 C 4,0 km/h
08.06.2017 20:00 23,1 C 40 % 1017,5 hPa 0,0 l/m 0,0 km/h N 8,5 C 23,1 C 0,4 km/h
08.06.2017 21:00 18,7 C 51 % 1017,9 hPa 0,0 l/m 0,0 km/h N 8,2 C 18,7 C 0,4 km/h
08.06.2017 22:00 15,3 C 62 % 1018,3 hPa 0,0 l/m 0,0 km/h N 7,9 C 15,3 C 0,0 km/h
08.06.2017 23:00 13,4 C 69 % 1018,3 hPa 0,0 l/m 0,0 km/h N 7,8 C 13,4 C 0,0 km/h
09.06.2017 00:00 12,4 C 75 % 1018,2 hPa 0,0 l/m 0,0 km/h N 8,0 C 12,4 C 0,4 km/h
09.06.2017 01:00 11,6 C 78 % 1017,8 hPa 0,0 l/m 0,0 km/h N 7,8 C 11,6 C 0,0 km/h
09.06.2017 02:00 10,9 C 80 % 1017,4 hPa 0,0 l/m 0,0 km/h N 7,5 C 10,9 C 0,0 km/h
09.06.2017 03:00 10,5 C 81 % 1017,2 hPa 0,0 l/m 0,0 km/h N 7,3 C 10,5 C 0,8 km/h
09.06.2017 04:00 10,2 C 81 % 1016,9 hPa 0,0 l/m 0,0 km/h N 7,0 C 10,2 C 0,4 km/h
09.06.2017 05:00 9,6 C 81 % 1017,3 hPa 0,0 l/m 0,0 km/h N 6,5 C 9,6 C 0,0 km/h
09.06.2017 06:00 9,9 C 82 % 1017,6 hPa 0,0 l/m 0,0 km/h N 6,9 C 9,9 C 0,0 km/h
09.06.2017 07:00 11,9 C 82 % 1017,4 hPa 0,0 l/m 0,0 km/h N 8,9 C 11,9 C 0,8 km/h
09.06.2017 08:00 15,8 C 75 % 1017,2 hPa 0,0 l/m 0,1 km/h N 11,4 C 15,8 C 2,8 km/h
09.06.2017 09:00 20,6 C 61 % 1016,8 hPa 0,0 l/m 0,2 km/h N 12,7 C 20,6 C 2,8 km/h
09.06.2017 10:00 23,7 C 49 % 1016,2 hPa 0,0 l/m 1,3 km/h N 12,2 C 23,7 C 9,2 km/h
09.06.2017 11:00 25,7 C 43 % 1015,8 hPa 0,0 l/m 2,5 km/h N 12,2 C 25,7 C 11,3 km/h
09.06.2017 12:00 26,9 C 38 % 1015,2 hPa 0,0 l/m 3,0 km/h N 11,2 C 26,9 C 11,7 km/h
09.06.2017 13:00 27,7 C 36 % 1014,6 hPa 0,0 l/m 3,2 km/h N 11,3 C 27,7 C 16,1 km/h
09.06.2017 14:00 28,3 C 37 % 1013,8 hPa 0,0 l/m 2,8 km/h N 12,0 C 28,3 C 9,7 km/h
09.06.2017 15:00 27,8 C 37 % 1013,3 hPa 0,0 l/m 2,9 km/h N 11,7 C 27,8 C 10,9 km/h
09.06.2017 16:00 26,8 C 38 % 1013,0 hPa 0,0 l/m 3,2 km/h N 11,3 C 26,8 C 12,1 km/h
09.06.2017 17:00 26,7 C 38 % 1012,5 hPa 0,0 l/m 3,2 km/h N 11,2 C 26,7 C 14,1 km/h
09.06.2017 18:00 27,3 C 37 % 1012,3 hPa 0,0 l/m 2,5 km/h N 11,3 C 27,3 C 12,1 km/h
09.06.2017 19:00 25,8 C 42 % 1012,3 hPa 0,0 l/m 1,1 km/h N 11,7 C 25,8 C 7,2 km/h
09.06.2017 20:00 23,8 C 48 % 1012,5 hPa 0,0 l/m 0,1 km/h N 12,2 C 23,8 C 2,4 km/h
09.06.2017 21:00 21,5 C 51 % 1012,8 hPa 0,0 l/m 0,1 km/h N 11,0 C 21,5 C 2,8 km/h
09.06.2017 22:00 19,7 C 58 % 1012,9 hPa 0,0 l/m 0,1 km/h N 11,1 C 19,7 C 1,2 km/h
09.06.2017 23:00 17,8 C 66 % 1012,9 hPa 0,0 l/m 0,1 km/h N 11,4 C 17,8 C 1,2 km/h
10.06.2017 00:00 16,6 C 72 % 1012,8 hPa 0,0 l/m 0,1 km/h N 11,6 C 16,6 C 2,0 km/h
10.06.2017 01:00 15,8 C 75 % 1012,8 hPa 0,0 l/m 0,1 km/h N 11,3 C 15,8 C 2,4 km/h
10.06.2017 02:00 17,7 C 72 % 1013,0 hPa 0,0 l/m 5,7 km/h N 12,4 C 16,9 C 20,9 km/h
10.06.2017 03:00 21,2 C 61 % 1013,7 hPa 0,0 l/m 6,9 km/h N 13,3 C 21,0 C 22,1 km/h
10.06.2017 04:00 19,9 C 67 % 1015,1 hPa 0,0 l/m 7,1 km/h N 13,6 C 19,5 C 23,3 km/h
10.06.2017 05:00 17,1 C 77 % 1015,7 hPa 1,8 l/m 11,9 km/h N 13,0 C 14,8 C 32,6 km/h
10.06.2017 06:00 15,9 C 81 % 1016,2 hPa 0,8 l/m 11,6 km/h N 12,6 C 13,5 C 33,8 km/h
10.06.2017 07:00 15,7 C 81 % 1017,0 hPa 2,1 l/m 2,4 km/h N 12,4 C 15,5 C 10,8 km/h
10.06.2017 08:00 15,8 C 81 % 1017,6 hPa 0,0 l/m 4,1 km/h N 12,6 C 15,8 C 13,3 km/h
10.06.2017 09:00 17,3 C 80 % 1018,0 hPa 0,0 l/m 6,3 km/h N 13,8 C 17,2 C 18,5 km/h
10.06.2017 10:00 18,9 C 78 % 1018,6 hPa 0,0 l/m 7,9 km/h N 14,8 C 18,2 C 21,3 km/h
10.06.2017 11:00 20,4 C 69 % 1018,6 hPa 0,3 l/m 7,0 km/h N 14,5 C 19,8 C 22,5 km/h
10.06.2017 12:00 20,7 C 67 % 1018,5 hPa 0,0 l/m 7,3 km/h N 14,3 C 20,2 C 23,7 km/h
10.06.2017 13:00 21,5 C 60 % 1018,1 hPa 0,0 l/m 7,1 km/h N 13,4 C 20,9 C 21,3 km/h
10.06.2017 14:00 23,0 C 53 % 1017,7 hPa 0,0 l/m 9,4 km/h N 12,9 C 22,2 C 26,1 km/h
10.06.2017 15:00 23,3 C 50 % 1017,8 hPa 0,0 l/m 9,3 km/h N 12,3 C 22,5 C 25,7 km/h
10.06.2017 16:00 23,0 C 52 % 1017,9 hPa 0,0 l/m 6,3 km/h N 12,6 C 22,9 C 21,7 km/h
10.06.2017 17:00 23,6 C 47 % 1017,8 hPa 0,0 l/m 6,4 km/h N 11,5 C 23,4 C 22,9 km/h
10.06.2017 18:00 23,2 C 45 % 1017,9 hPa 0,0 l/m 4,4 km/h N 10,7 C 23,2 C 19,3 km/h
10.06.2017 19:00 22,1 C 48 % 1018,2 hPa 0,0 l/m 2,0 km/h N 10,4 C 22,1 C 11,7 km/h
10.06.2017 20:00 21,2 C 51 % 1018,6 hPa 0,0 l/m 0,1 km/h N 10,5 C 21,2 C 3,6 km/h
10.06.2017 21:00 19,9 C 57 % 1019,3 hPa 0,0 l/m 0,0 km/h N 11,0 C 19,9 C 1,2 km/h
10.06.2017 22:00 17,9 C 66 % 1020,0 hPa 0,0 l/m 0,0 km/h N 11,5 C 17,9 C 0,0 km/h
10.06.2017 23:00 15,6 C 75 % 1020,6 hPa 0,0 l/m 0,0 km/h N 11,1 C 15,6 C 0,4 km/h
11.06.2017 00:00 14,7 C 78 % 1020,8 hPa 0,0 l/m 0,0 km/h N 11,0 C 14,7 C 0,8 km/h
11.06.2017 01:00 14,4 C 80 % 1020,7 hPa 0,0 l/m 0,0 km/h N 11,0 C 14,4 C 1,2 km/h
11.06.2017 02:00 14,0 C 81 % 1020,7 hPa 0,0 l/m 0,0 km/h N 10,7 C 14,0 C 1,2 km/h
11.06.2017 03:00 13,3 C 81 % 1020,8 hPa 0,0 l/m 0,0 km/h N 10,1 C 13,3 C 0,4 km/h
11.06.2017 04:00 12,5 C 82 % 1020,9 hPa 0,0 l/m 0,0 km/h N 9,5 C 12,5 C 1,2 km/h
11.06.2017 05:00 13,1 C 82 % 1021,0 hPa 0,0 l/m 0,0 km/h N 10,1 C 13,1 C 0,8 km/h
11.06.2017 06:00 14,1 C 81 % 1021,3 hPa 0,0 l/m 0,1 km/h N 10,9 C 14,1 C 2,4 km/h
11.06.2017 07:00 15,7 C 79 % 1021,3 hPa 0,0 l/m 0,1 km/h N 12,0 C 15,7 C 1,6 km/h
11.06.2017 08:00 19,2 C 65 % 1021,3 hPa 0,0 l/m 0,9 km/h N 12,4 C 19,2 C 6,0 km/h
11.06.2017 09:00 21,5 C 56 % 1021,1 hPa 0,0 l/m 1,4 km/h N 12,4 C 21,5 C 9,6 km/h
11.06.2017 10:00 22,1 C 52 % 1020,9 hPa 0,0 l/m 3,3 km/h N 11,8 C 22,1 C 14,9 km/h
11.06.2017 11:00 23,0 C 51 % 1020,7 hPa 0,0 l/m 2,8 km/h N 12,2 C 23,0 C 10,9 km/h
11.06.2017 12:00 23,9 C 47 % 1020,4 hPa 0,0 l/m 3,2 km/h N 11,8 C 23,9 C 14,5 km/h
11.06.2017 13:00 24,4 C 44 % 1019,8 hPa 0,0 l/m 3,8 km/h N 11,3 C 24,4 C 15,3 km/h
11.06.2017 14:00 25,2 C 45 % 1019,1 hPa 0,0 l/m 1,8 km/h N 12,3 C 25,2 C 8,9 km/h
11.06.2017 15:00 25,5 C 42 % 1018,7 hPa 0,0 l/m 2,8 km/h N 11,6 C 25,5 C 13,7 km/h
11.06.2017 16:00 25,1 C 40 % 1018,1 hPa 0,0 l/m 1,5 km/h N 10,6 C 25,1 C 11,3 km/h
11.06.2017 17:00 25,6 C 41 % 1017,3 hPa 0,0 l/m 0,4 km/h N 11,2 C 25,6 C 5,2 km/h
11.06.2017 18:00 27,0 C 38 % 1016,6 hPa 0,0 l/m 0,6 km/h N 11,4 C 27,0 C 4,8 km/h
11.06.2017 19:00 26,6 C 39 % 1016,2 hPa 0,0 l/m 0,1 km/h N 11,3 C 26,6 C 3,2 km/h
11.06.2017 20:00 25,2 C 42 % 1015,9 hPa 0,0 l/m 0,0 km/h N 11,4 C 25,2 C 1,2 km/h
11.06.2017 21:00 21,7 C 52 % 1016,1 hPa 0,0 l/m 0,0 km/h N 11,3 C 21,7 C 0,0 km/h
11.06.2017 22:00 18,3 C 61 % 1016,1 hPa 0,0 l/m 0,0 km/h N 10,7 C 18,3 C 0,0 km/h
11.06.2017 23:00 16,4 C 68 % 1016,1 hPa 0,0 l/m 0,0 km/h N 10,5 C 16,4 C 0,0 km/h
Min-Datum _ 09.06.17 08.06.17 06.06.17 - 05.06.17 - 08.06.17 09.06.17 05.06.17
_ Min-Zeit 05:45 18:45 17:15 - 01:30 - 05:00 05:45 02:00
Minimum _ 9,4 C 34 % 1001,6 hPa - 0,0 km/h - 6,0 C 9,4 C 0,0 km/h
Max-Datum _ 06.06.17 05.06.17 08.06.17 10.06.17 06.06.17 - 06.06.17 06.06.17 07.06.17
_ Max-Zeit 12:00 02:45 07:15 07:30 23:30 - 10:00 12:00 01:00
Maximum _ 28,8 C 82 % 1021,7 hPa 2,1 l/m 18,5 km/h
N
- 18,4 C 28,8 C 48,3 km/h
N
Durchschnitt _ 19,2 C 61 % 1015,1 hPa #5,2 l/m 3,3 km/h N 11,0 C 18,8 C 11,9 km/h